x

Shumagin Islands - 85nm South Of Sand Point, Ak (46075) Wave Buoy

8:50am - Thu 31st Jul 2014 All times are UTC.

  • Sig Wave height 2.0ft
  • Peak Period 11s
  • Average Period 4s
  • Wind
    9mph, 11mph gusts
  • Sea Temp 57°f
  • 空気 Temp 58°f
  • Sea Pressure 1022.2mb

More Historic Weather Station data

Upgrade to MSW Pro to gain access to the past 30 days of data for over 8000 Wavebouys and Weather Stations around the globe.

Join Pro

Comparision Forecast

View Surf forecast
   
Thu 07/31 8:50am 2ft 11s 4s 9 11 mph 1022.2mb 57f 58f
7:50am 2.5ft 9s 4s 7 9 mph 1022.2mb 57f 57f
6:50am 2.5ft 8s 4s 9 11 mph 1022mb 57f 57f
5:50am 2.5ft 7s 4s 13 16 mph 1021.7mb 57f 57f
4:50am 2ft 7s 4s 11 13 mph 1021.8mb 57f 57f
3:50am 2.5ft 6s 5s 11 13 mph 1021.8mb 57f 58f
2:50am 2.5ft 6s 5s 9 11 mph 1021.9mb 57f 58f
1:50am 2.5ft 11s 5s 9 11 mph 1022mb 57f 57f
12:50am 2.5ft 6s 5s 9 11 mph 1022mb 57f 57f
Wed 07/30 11:50pm 2.5ft 14s 5s 11 13 mph 1021.9mb 57f 56f
10:50pm 2.5ft 14s 5s 9 11 mph 1021.9mb 57f 56f
9:50pm 2.5ft 11s 5s 9 11 mph 1022mb 57f 56f
8:50pm 2.5ft 6s 4s 9 11 mph 1022.1mb 57f 56f
7:50pm 2.5ft 5s 4s 11
mph
1022mb 57f 56f
6:50pm 2.5ft 4s 4s 11
mph
1021.9mb 56f 55f
5:50pm 2.5ft 5s 5s 9 11 mph 1021.8mb 56f 56f
4:50pm 3ft 5s 5s 7 9 mph 1021.4mb 56f 56f
3:50pm 2.5ft 5s 5s 7 9 mph 1021.1mb 56f 56f
2:50pm 3ft 5s 5s 9
mph
1020.8mb 56f 55f
1:50pm 3ft 5s 5s 9
mph
1020.6mb 56f 55f
12:50pm 3ft 6s 5s 4 7 mph 1020.3mb 56f 55f
11:50am 3ft 5s 5s 7 9 mph 1019.8mb 56f 55f
10:50am 3.5ft 6s 5s 7 9 mph 1019.8mb 56f 55f
9:50am 3.5ft 5s 5s 7 9 mph 1019.6mb 56f 55f
8:50am 4ft 5s 5s 9
mph
1019.5mb 55f 55f
7:50am 4ft 5s 4s 9 11 mph 1019.5mb 55f 56f
6:50am 4.5ft 5s 5s 11 13 mph 1018.9mb 56f 56f
5:50am 4.5ft 6s 5s 11 13 mph 1018.7mb 56f 56f
4:50am 4.5ft 5s 5s 13 18 mph 1018.5mb 56f 56f
3:50am 5ft 6s 5s 13 18 mph 1018.4mb 56f 57f
2:50am 5ft 6s 5s 16 20 mph 1018.2mb 56f 56f
1:50am 5ft 6s 5s 18 22 mph 1017.9mb 56f 56f
12:50am 5ft 6s 5s 20 25 mph 1017.8mb 56f 56f
Tue 07/29 11:50pm 5ft 6s 5s 20 25 mph 1017.7mb 56f 56f
10:50pm 5ft 6s 5s 20 25 mph 1017.8mb 56f 56f
9:50pm 5ft 6s 5s 22 29 mph 1017.6mb 56f 56f
8:50pm 5ft 6s 5s 13 18 mph 1018.3mb 56f 56f
7:50pm 5.5ft 6s 5s 18 22 mph 1018mb 56f 55f
6:50pm 6ft 6s 5s 22 29 mph 1017.6mb 56f 56f
5:50pm 6ft 6s 5s 20 25 mph 1017.7mb 56f 55f
4:50pm 6ft 6s 5s 18 22 mph 1018mb 55f 55f
3:50pm 5.5ft 6s 5s 18 20 mph 1017.7mb 55f 55f
2:50pm 5ft 5s 5s 18 22 mph 1017.9mb 55f 54f
1:50pm 5ft 6s 5s 18 20 mph 1017.8mb 55f 54f
12:50pm 5ft 6s 5s 22 27 mph 1017.9mb 55f 54f
11:50am 4.5ft 5s 5s 18 22 mph 1018.1mb 56f 54f
10:50am 3.5ft 6s 5s 16 20 mph 1018.8mb 56f 54f
9:50am 3.5ft 5s 5s 16 20 mph 1019.1mb 56f 54f
8:50am 3.5ft 5s 5s 16 20 mph 1019.3mb 55f 55f
7:50am 3.5ft 5s 4s 16 20 mph 1019.5mb 55f 54f
6:50am 3.5ft 5s 4s 18 22 mph 1019.6mb 55f 54f
5:50am 3.5ft 5s 4s 18 22 mph 1019.7mb 55f 55f
4:50am 3.5ft 5s 4s 18 22 mph 1020.2mb 56f 54f
3:50am 3.5ft 5s 4s 18 20 mph 1020.6mb 56f 54f
2:50am 3.5ft 5s 4s 18 20 mph 1021mb 56f 54f
1:50am 3.5ft 5s 4s 16 18 mph 1021.5mb 55f 54f
12:50am 3ft 5s 4s 16 18 mph 1021.4mb 55f 54f
Mon 07/28 11:50pm 3ft 5s 4s 13 18 mph 1021.7mb 55f 54f
10:50pm 3ft 4s 4s 16 20 mph 1021.8mb 55f 54f
9:50pm 2.5ft 5s 5s 9 16 mph 1022.2mb 55f 54f
8:50pm 2.5ft 4s 4s 4 7 mph 1022.1mb 55f 54f
7:50pm 3ft 4s 4s 9 11 mph 1022.1mb 55f 54f
6:50pm 3ft 5s 4s 13
mph
1022.2mb 55f 54f
5:50pm 2.5ft 5s 4s 13 16 mph 1021.9mb 55f 54f
4:50pm 2.5ft 14s 5s 9 11 mph 1021.8mb 55f 54f
3:50pm 2.5ft 5s 5s 11 13 mph 1021.8mb 55f 54f
2:50pm 2.5ft 13s 5s 9 11 mph 1021.6mb 55f 55f
1:50pm 2.5ft 5s 4s 9
mph
1021.5mb 55f 54f
12:50pm 2.5ft 5s 4s 11 13 mph 1021.3mb 55f 54f
11:50am 2.5ft 5s 4s 16 18 mph 1021.3mb 55f 54f
10:50am 2.5ft 5s 4s 13 16 mph 1021.5mb 55f 55f
9:50am 2.5ft 5s 4s 11 16 mph 1021.5mb 55f 55f
8:50am 2.5ft 4s 4s 16 18 mph 1021.1mb 55f 55f
7:50am 2.5ft 4s 4s 13 16 mph 1021.2mb 56f 55f
6:50am 3ft 4s 4s 16 18 mph 1021mb 56f 55f
5:50am 3ft 4s 4s 13 18 mph 1020.7mb 55f 55f
4:50am 3ft 4s 4s 16 18 mph 1020.3mb 56f 55f
3:50am 2.5ft 5s 4s 13 16 mph 1020.3mb 55f 55f
2:50am 2.5ft 5s 4s 16 20 mph 1020.4mb 55f 55f
1:50am 2.5ft 5s 4s 13 16 mph 1020.4mb 55f 55f
12:50am 2.5ft 6s 4s 13
mph
1020.3mb 55f 55f
Sun 07/27 11:50pm 2.5ft 5s 5s 11 13 mph 1020.5mb 55f 55f